Aktuální počasí v Česku a ve světě - METAR

Seznam meteostanic umístěných nejčasteji na letišti v ČR a ve světě

Vyhledat místa podle abecedy:
A B C D E F G H I J K L M N O P Q R S T U V W X Y Z

Filtrovat:

ID stanice:
a/nebo
Název místa (fulltext):
 
Místo (ID)Naposledy načteno 
Brno - Tuřany (Brno/Tu) 13.04.2021 19:00 UTC Zobrazit data
Místo: Brno - Tuřany
Teplota: 3 °C (pocitová: -5 °C)
Vítr: 5 m/s z(e) 320°
Počasí: déšť
Dohlednost: 20 km
Zákl. oblačnosti: 5/8 630 m;8/8 1500 m
Vlhkost: 81%
Červená - Opava (Cervena/uL) 13.04.2021 19:00 UTC Zobrazit data
Místo: Červená - Opava
Teplota: 0 °C (pocitová: -10.9 °C)
Vítr: 8 m/s z(e) 360°
Počasí: sněží
Dohlednost: 11 km
Zákl. oblačnosti: 1/8 570 m;8/8 1050 m
Vlhkost: 100%
České Budějovice (C.Budej/po) 13.04.2021 19:00 UTC Zobrazit data
Místo: České Budějovice
Teplota: 3 °C (pocitová: -2.1 °C)
Vítr: 2 m/s z(e) 300°
Počasí: zataženo
Dohlednost: 20 km
Zákl. oblačnosti: 1/8 1800 m;7/8 3300 m
Vlhkost: 81%
Cheb (Cheb) 13.04.2021 19:00 UTC Zobrazit data
Místo: Cheb
Teplota: 3 °C (pocitová: -3.3 °C)
Vítr: 3 m/s z(e) 330°
Počasí: oblačno
Dohlednost: 35 km
Zákl. oblačnosti: 2/8 1290 m
Vlhkost: 60%
Chotusice - Čáslav (Caslav) 13.04.2021 19:00 UTC Zobrazit data
Místo: Chotusice - Čáslav
Teplota: 5 °C (pocitová: -1.5 °C)
Vítr: 4 m/s z(e) 320°
Počasí: zataženo
Dohlednost: 20 km
Zákl. oblačnosti: 8/8 3300 m
Vlhkost: 61%
Churáňov (Churanov) 13.04.2021 19:00 UTC Zobrazit data
Místo: Churáňov
Teplota: -3 °C (pocitová: -9.8 °C)
Vítr: 2 m/s z(e) 360°
Počasí: zataženo
Dohlednost: 15 km
Zákl. oblačnosti: 2/8 930 m;8/8 4200 m
Vlhkost: 93%
Doksany - Litoměřice (Doksany) 13.04.2021 19:00 UTC Zobrazit data
Místo: Doksany - Litoměřice
Teplota: 4 °C (pocitová: -0.8 °C)
Vítr: 2 m/s z(e) 300°
Počasí: skoro zataženo
Dohlednost: 55 km
Zákl. oblačnosti: 5/8 2400 m
Vlhkost: 65%
Dukovany (Dukovany) 13.04.2021 19:00 UTC Zobrazit data
Místo: Dukovany
Teplota: 2 °C (pocitová: -6.4 °C)
Vítr: 5 m/s z(e) 30°
Počasí: sněží
Dohlednost: 12 km
Zákl. oblačnosti: 8/8 480 m
Vlhkost: 87%
Holešov (Holesov) 13.04.2021 19:00 UTC Zobrazit data
Místo: Holešov
Teplota: 3 °C (pocitová: -5 °C)
Vítr: 5 m/s z(e) 360°
Počasí: déšť
Dohlednost: 15 km
Zákl. oblačnosti: 8/8 360 m
Vlhkost: 81%
Kadaň - Tušimice (Tusimice) 13.04.2021 19:00 UTC Zobrazit data
Místo: Kadaň - Tušimice
Teplota: 4 °C (pocitová: -2 °C)
Vítr: 3 m/s z(e) 320°
Počasí: skoro zataženo
Dohlednost: 35 km
Zákl. oblačnosti: 1/8 2100 m;6/8 6000 m
Vlhkost: 65%
Karlovy Vary (K.Vary) 13.04.2021 19:00 UTC Zobrazit data
Místo: Karlovy Vary
Teplota: 1 °C (pocitová: -4.6 °C)
Vítr: 2 m/s z(e) 300°
Počasí: skoro zataženo
Dohlednost: 30 km
Zákl. oblačnosti: 6/8 4500 m
Vlhkost: 70%
Kocelovice (Kocelovice) 13.04.2021 19:00 UTC Zobrazit data
Místo: Kocelovice
Teplota: 2 °C (pocitová: -4.7 °C)
Vítr: 3 m/s z(e) 330°
Počasí: skoro zataženo
Dohlednost: 35 km
Zákl. oblačnosti: 7/8 4800 m
Vlhkost: 70%
Kopisty (Kopisty) 13.04.2021 18:00 UTC Zobrazit data
Místo: Kopisty
Teplota: 5 °C (pocitová: -1.5 °C)
Vítr: 4 m/s z(e) 290°
Počasí: skoro zataženo
Dohlednost: 30 km
Zákl. oblačnosti: 2/8 1200 m
Vlhkost: 66%
Kostelní Myslová (K.Myslova) 13.04.2021 19:00 UTC Zobrazit data
Místo: Kostelní Myslová
Teplota: 1 °C (pocitová: -7 °C)
Vítr: 4 m/s z(e) 310°
Počasí: zataženo
Dohlednost: 35 km
Zákl. oblačnosti: 8/8 1500 m
Vlhkost: 87%
Křešín - Kramolín (Kramolin) 13.04.2021 19:00 UTC Zobrazit data
Místo: Křešín - Kramolín
Teplota: 2 °C (pocitová: -5.6 °C)
Vítr: 4 m/s z(e) 320°
Počasí: zataženo
Dohlednost: 35 km
Zákl. oblačnosti: 8/8 3000 m
Vlhkost: 70%
Kuchařovice - Znojmo (Kucharovic) 13.04.2021 19:00 UTC Zobrazit data
Místo: Kuchařovice - Znojmo
Teplota: 3 °C (pocitová: -5 °C)
Vítr: 5 m/s z(e) 330°
Počasí: zataženo
Dohlednost: 23 km
Zákl. oblačnosti: 7/8 1800 m
Vlhkost: 81%
Liberec (Liberec) 13.04.2021 19:00 UTC Zobrazit data
Místo: Liberec
Teplota: 2 °C (pocitová: -3.3 °C)
Vítr: 2 m/s z(e) 310°
Počasí: zataženo
Dohlednost: 30 km
Zákl. oblačnosti: 4/8 1440 m;5/8 2100 m
Vlhkost: 81%
Luká (Luka) 13.04.2021 19:00 UTC Zobrazit data
Místo: Luká
Teplota: 1 °C (pocitová: -8.3 °C)
Vítr: 6 m/s z(e) 340°
Počasí: zataženo
Dohlednost: 8 km
Zákl. oblačnosti: 5/8 300 m;8/8 1260 m
Vlhkost: 93%
Lysá Hora (Lysa Hora) 13.04.2021 04:00 UTC Zobrazit data
Místo: Lysá Hora
Teplota: -5 °C (pocitová: -20.2 °C)
Vítr: 13 m/s z(e) 360°
Počasí:
Dohlednost: N/A
Zákl. oblačnosti: N/A
Vlhkost: 93%
Milešovka (Milesovka) 13.04.2021 19:00 UTC Zobrazit data
Místo: Milešovka
Teplota: 0 °C (pocitová: -11.5 °C)
Vítr: 10 m/s z(e) 320°
Počasí: skoro zataženo
Dohlednost: 65 km
Zákl. oblačnosti: 2/8 1200 m;4/8 1800 m
Vlhkost: 93%
Mošnov (Ostrava/Mo) 13.04.2021 19:00 UTC Zobrazit data
Místo: Mošnov
Teplota: 2 °C (pocitová: -5.6 °C)
Vítr: 4 m/s z(e) 10°
Počasí: déšť
Dohlednost: 8 km
Zákl. oblačnosti: 5/8 300 m;8/8 1380 m
Vlhkost: 93%
Náměšť nad Oslavou (Namest n/O) 13.04.2021 19:00 UTC Zobrazit data
Místo: Náměšť nad Oslavou
Teplota: 1 °C (pocitová: -7 °C)
Vítr: 4 m/s z(e) 350°
Počasí: zataženo
Dohlednost: 4000 m
Zákl. oblačnosti: 6/8 480 m;8/8 1500 m
Vlhkost: 93%
Pardubice (Pardubice) 13.04.2021 19:00 UTC Zobrazit data
Místo: Pardubice
Teplota: 5 °C (pocitová: -0.7 °C)
Vítr: 3 m/s z(e) 320°
Počasí: zataženo
Dohlednost: 20 km
Zákl. oblačnosti: 8/8 3000 m
Vlhkost: 66%
Pec pod Sněžkou (Pec p.Snez) 13.04.2021 19:00 UTC Zobrazit data
Místo: Pec pod Sněžkou
Teplota: 0 °C (pocitová: -5.9 °C)
Vítr: 2 m/s z(e) 350°
Počasí: sněží
Dohlednost: 15 km
Zákl. oblačnosti: 8/8 660 m
Vlhkost: 75%
Plzeň město - Mikulka (Plzen/Miku) 13.04.2021 19:00 UTC Zobrazit data
Místo: Plzeň město - Mikulka
Teplota: 4 °C (pocitová: -2 °C)
Vítr: 3 m/s z(e) 320°
Počasí: skoro zataženo
Dohlednost: 40 km
Zákl. oblačnosti: 4/8 1800 m;7/8 4800 m
Vlhkost: 61%
Polom (Polom) 13.04.2021 19:00 UTC Zobrazit data
Místo: Polom
Teplota: 0 °C (pocitová: -7.3 °C)
Vítr: 3 m/s z(e) 350°
Počasí: zataženo
Dohlednost: 20 km
Zákl. oblačnosti: 8/8 3000 m
Vlhkost: 75%
Praha - Karlov (Praha/Kar) 13.04.2021 19:00 UTC Zobrazit data
Místo: Praha - Karlov
Teplota: 5 °C (pocitová: -1.5 °C)
Vítr: 4 m/s z(e) 320°
Počasí: skoro zataženo
Dohlednost: 35 km
Zákl. oblačnosti: 2/8 2100 m;8/8 4500 m
Vlhkost: 57%
Praha - Kbely (Praha/Kbe) 13.04.2021 19:00 UTC Zobrazit data
Místo: Praha - Kbely
Teplota: 5 °C (pocitová: -0.7 °C)
Vítr: 3 m/s z(e) 310°
Počasí: skoro zataženo
Dohlednost: 20 km
Zákl. oblačnosti: 3/8 3900 m;6/8 4500 m
Vlhkost: 61%
Praha - Libuš (Praha/Lib) 13.04.2021 19:00 UTC Zobrazit data
Místo: Praha - Libuš
Teplota: 5 °C (pocitová: -0.7 °C)
Vítr: 3 m/s z(e) 320°
Počasí: skoro zataženo
Dohlednost: 40 km
Zákl. oblačnosti: 1/8 1800 m;7/8 4500 m
Vlhkost: 57%
Praha - Ruzyně (Praha/Ru) 13.04.2021 19:00 UTC Zobrazit data
Místo: Praha - Ruzyně
Teplota: 3 °C (pocitová: -3.3 °C)
Vítr: 3 m/s z(e) 330°
Počasí: zataženo
Dohlednost: 60 km
Zákl. oblačnosti: 5/8 1800 m;8/8 4500 m
Vlhkost: 75%
Přibyslav (Pribyslav) 13.04.2021 19:00 UTC Zobrazit data
Místo: Přibyslav
Teplota: 1 °C (pocitová: -6 °C)
Vítr: 3 m/s z(e) 340°
Počasí: zataženo
Dohlednost: 22 km
Zákl. oblačnosti: 8/8 2400 m
Vlhkost: 93%
Přimda (Primda) 13.04.2021 19:00 UTC Zobrazit data
Místo: Přimda
Teplota: 1 °C (pocitová: -4.6 °C)
Vítr: 2 m/s z(e) 310°
Počasí: skoro zataženo
Dohlednost: 70 km
Zákl. oblačnosti: 1/8 1170 m;7/8 5400 m
Vlhkost: 70%
Šerák (Serak) 13.04.2021 17:00 UTC Zobrazit data
Místo: Šerák
Teplota: -4 °C (pocitová: -14.8 °C)
Vítr: 5 m/s z(e) 10°
Počasí: sněží
Dohlednost: 100 m
Zákl. oblačnosti: 8/8 30 m
Vlhkost: 100%
Svratouch (Svratouch) 13.04.2021 19:00 UTC Zobrazit data
Místo: Svratouch
Teplota: 0 °C (pocitová: -8.4 °C)
Vítr: 4 m/s z(e) 350°
Počasí: zataženo
Dohlednost: 35 km
Zákl. oblačnosti: 2/8 990 m;7/8 1500 m
Vlhkost: 87%
Temelín (Temelin) 13.04.2021 19:00 UTC Zobrazit data
Místo: Temelín
Teplota: 3 °C (pocitová: -3.3 °C)
Vítr: 3 m/s z(e) 330°
Počasí: zataženo
Dohlednost: 30 km
Zákl. oblačnosti: 8/8 3300 m
Vlhkost: 65%
Ústí nad Labem - Kočkov (Usti n/L) 13.04.2021 19:00 UTC Zobrazit data
Místo: Ústí nad Labem - Kočkov
Teplota: 3 °C (pocitová: -3.3 °C)
Vítr: 3 m/s z(e) 320°
Počasí: skoro zataženo
Dohlednost: 75 km
Zákl. oblačnosti: 1/8 1800 m;7/8 4800 m
Vlhkost: 70%
Ústí nad Orlicí (Usti n/O) 13.04.2021 19:00 UTC Zobrazit data
Místo: Ústí nad Orlicí
Teplota: 2 °C (pocitová: -4.7 °C)
Vítr: 3 m/s z(e) 320°
Počasí: zataženo
Dohlednost: 40 km
Zákl. oblačnosti: 8/8 2100 m
Vlhkost: 81%
Aalborg (EKYT) 13.04.2021 13:50 UTC Zobrazit METAR
EKYT 131350Z AUTO 32009KT 280V350 9999 FEW046/// 07/M04 Q1023
Aarhus (EKAH) 13.04.2021 17:50 UTC Zobrazit METAR
EKAH 131750Z AUTO 01002KT 9999 BKN069/// 06/00 Q1024
Abu Dhabi (OMAA) 13.04.2021 19:00 UTC Zobrazit METAR
OMAA 131900Z 09010KT CAVOK 30/12 Q1009 NOSIG
Abuja (DNAA) 13.04.2021 19:00 UTC Zobrazit METAR
DNAA 131900Z 19008KT 9999 FEW012 34/19 Q1010 NOSIG
Accra (DGAA) 13.04.2021 19:00 UTC Zobrazit METAR
DGAA 131900Z 19010KT 9999 FEW020 29/25 Q1010 NOSIG
Addis Abeba (HAAB) 13.04.2021 19:00 UTC Zobrazit METAR
HAAB 131900Z 08008KT 9999 FEW025 19/03 Q1027
Agana (PGUM) 13.04.2021 18:54 UTC Zobrazit METAR
PGUM 131854Z 08007KT 10SM CLR 27/23 A2978 RMK AO2 SLP076 T02720228
Ahe Island (NTHE) Zatím nenačteno  
Akureyri (BIAR) 13.04.2021 19:00 UTC Zobrazit METAR
BIAR 131900Z 21012KT 9999 FEW050 08/M02 Q1024
Almaty (UAAA) Zatím nenačteno  
Amman (OJAM) 13.04.2021 19:00 UTC Zobrazit METAR
OJAM 131900Z 00000KT 7000 NSC 11/06 Q1021 NOSIG
Amsterdam (EHAM) 13.04.2021 18:55 UTC Zobrazit METAR
EHAM 131855Z 29005KT CAVOK 04/M02 Q1032 NOSIG
Antananarivo (FMMI) 13.04.2021 19:00 UTC Zobrazit METAR
FMMI 131900Z VRB02KT 9999 FEW010 BKN020 18/17 Q1023 NOSIG
1 2 3 ... 9 Další
Reklama

Reklama


💌 Počasí na Váš email

Emaily jsou bez reklamy a bez spamu



Odhlásit newsletter



Další české internetové stránky (nejen) o počasí najdete v katalogu TOPlist - weby o počasí nebo vyhledejte na internetu, co jste tu na 🌞 Slunečnu ⛅ zatím nenašli:
⭐ Přidat Slunečno.cz do oblíbených | 🏠 Nastavit Slunečno.cz jako HOMEPAGE

⬆️ Posunout stránku nahoru ⬆️
Reklama